AAL99 KJFK-KMIA
Flight info
| Callsign | AAL99 |
|---|---|
| Flight time | 2h 27m |
| Altitude | 40000 |
| Route | WAVEY EMJAY Q167 KALDA Q101 SKARP Y313 HOAGG BNFSH3 |
| Aircraft | MD11/H-SDE3FGHIJ2J5J7P1P2P3RWXY/LB1D1 |
Departure
| Time | 2026-04-30 19:35 |
|---|---|
| Airport | John F. Kennedy International Airport (KJFK) |
Arrival
| Time | 2026-04-30 22:02 |
|---|---|
| Airport | Miami International Airport (KMIA) |
| Time | Latitude | Longitude | Altitude | Speed | Heading |
|---|---|---|---|---|---|
| 2026-04-30 18:47 | 40.64821 | -73.79278 | 29 ft | 0 kts | 150° |
| 2026-04-30 19:14 | 40.64832 | -73.79287 | 25 ft | 2 kts | 151° |
| 2026-04-30 19:14 | 40.64846 | -73.79297 | 29 ft | 2 kts | 151° |
| 2026-04-30 19:14 | 40.64860 | -73.79309 | 29 ft | 2 kts | 117° |
| 2026-04-30 19:14 | 40.64864 | -73.79329 | 31 ft | 2 kts | 79° |
| 2026-04-30 19:15 | 40.64861 | -73.79347 | 31 ft | 1 kts | 64° |
| 2026-04-30 19:15 | 40.64860 | -73.79350 | 31 ft | 0 kts | 62° |
| 2026-04-30 19:19 | 40.64864 | -73.79339 | 31 ft | 4 kts | 62° |
| 2026-04-30 19:20 | 40.64875 | -73.79313 | 31 ft | 3 kts | 61° |
| 2026-04-30 19:20 | 40.64887 | -73.79283 | 30 ft | 5 kts | 61° |
| 2026-04-30 19:20 | 40.64936 | -73.79170 | 29 ft | 8 kts | 60° |
| 2026-04-30 19:21 | 40.64961 | -73.79111 | 29 ft | 7 kts | 60° |
| 2026-04-30 19:21 | 40.65007 | -73.79002 | 28 ft | 6 kts | 61° |
| 2026-04-30 19:22 | 40.65051 | -73.78923 | 28 ft | 3 kts | 28° |
| 2026-04-30 19:22 | 40.65050 | -73.78924 | 28 ft | 0 kts | 26° |
| 2026-04-30 19:23 | 40.65052 | -73.78923 | 29 ft | 0 kts | 25° |
| 2026-04-30 19:24 | 40.65115 | -73.78900 | 27 ft | 2 kts | 21° |
| 2026-04-30 19:24 | 40.65127 | -73.78878 | 27 ft | 5 kts | 60° |
| 2026-04-30 19:24 | 40.65150 | -73.78743 | 26 ft | 8 kts | 73° |
| 2026-04-30 19:25 | 40.65239 | -73.78532 | 28 ft | 10 kts | 61° |
| 2026-04-30 19:26 | 40.65244 | -73.78331 | 27 ft | 12 kts | 119° |
| 2026-04-30 19:26 | 40.65160 | -73.78146 | 28 ft | 12 kts | 121° |
| 2026-04-30 19:26 | 40.65119 | -73.78054 | 28 ft | 9 kts | 121° |
| 2026-04-30 19:27 | 40.65154 | -73.77971 | 28 ft | 0 kts | 31° |
| 2026-04-30 19:29 | 40.65184 | -73.77947 | 28 ft | 9 kts | 31° |
| 2026-04-30 19:29 | 40.65247 | -73.77897 | 27 ft | 11 kts | 31° |
| 2026-04-30 19:30 | 40.65317 | -73.77728 | 28 ft | 14 kts | 120° |
| 2026-04-30 19:30 | 40.65199 | -73.77468 | 28 ft | 18 kts | 121° |
| 2026-04-30 19:31 | 40.65077 | -73.77199 | 28 ft | 16 kts | 121° |
| 2026-04-30 19:31 | 40.65021 | -73.77075 | 29 ft | 15 kts | 121° |
| 2026-04-30 19:31 | 40.64917 | -73.76845 | 29 ft | 14 kts | 121° |
| 2026-04-30 19:32 | 40.64873 | -73.76749 | 29 ft | 8 kts | 120° |
| 2026-04-30 19:32 | 40.64878 | -73.76697 | 27 ft | 6 kts | 52° |
| 2026-04-30 19:32 | 40.64932 | -73.76655 | 29 ft | 13 kts | 30° |
| 2026-04-30 19:32 | 40.65025 | -73.76584 | 29 ft | 17 kts | 30° |
| 2026-04-30 19:33 | 40.65096 | -73.76522 | 29 ft | 7 kts | 50° |
| 2026-04-30 19:33 | 40.65101 | -73.76481 | 29 ft | 3 kts | 102° |
| 2026-04-30 19:33 | 40.65095 | -73.76466 | 29 ft | 3 kts | 116° |
| 2026-04-30 19:33 | 40.65077 | -73.76419 | 30 ft | 8 kts | 117° |
| 2026-04-30 19:34 | 40.65039 | -73.76357 | 30 ft | 6 kts | 152° |
| 2026-04-30 19:34 | 40.65013 | -73.76363 | 30 ft | 5 kts | 203° |
| 2026-04-30 19:34 | 40.64583 | -73.76700 | 26 ft | 109 kts | 211° |
| 2026-04-30 19:35 | 40.63682 | -73.77398 | 225 ft | 174 kts | 210° |
| 2026-04-30 19:35 | 40.62614 | -73.78217 | 1328 ft | 183 kts | 214° |
| 2026-04-30 19:35 | 40.61481 | -73.79136 | 2180 ft | 205 kts | 213° |
| 2026-04-30 19:35 | 40.60146 | -73.80209 | 2675 ft | 244 kts | 213° |
| 2026-04-30 19:36 | 40.58646 | -73.81400 | 3228 ft | 255 kts | 213° |
| 2026-04-30 19:36 | 40.57119 | -73.82621 | 3701 ft | 259 kts | 213° |
| 2026-04-30 19:36 | 40.54018 | -73.85051 | 4474 ft | 262 kts | 206° |
| 2026-04-30 19:37 | 40.52237 | -73.85603 | 4881 ft | 269 kts | 184° |
| 2026-04-30 19:37 | 40.50425 | -73.85074 | 6165 ft | 273 kts | 157° |
| 2026-04-30 19:37 | 40.48906 | -73.83553 | 7251 ft | 284 kts | 135° |
| 2026-04-30 19:37 | 40.47670 | -73.81478 | 8324 ft | 292 kts | 128° |
| 2026-04-30 19:38 | 40.46493 | -73.79259 | 9419 ft | 298 kts | 128° |
| 2026-04-30 19:38 | 40.45297 | -73.77013 | 10292 ft | 312 kts | 129° |
| 2026-04-30 19:38 | 40.43957 | -73.74569 | 10436 ft | 347 kts | 129° |
| 2026-04-30 19:38 | 40.42467 | -73.71915 | 10796 ft | 369 kts | 130° |
| 2026-04-30 19:39 | 40.40915 | -73.69180 | 11631 ft | 375 kts | 130° |
| 2026-04-30 19:39 | 40.39338 | -73.66423 | 12462 ft | 380 kts | 131° |
| 2026-04-30 19:39 | 40.37745 | -73.63656 | 13287 ft | 385 kts | 133° |
| 2026-04-30 19:39 | 40.36116 | -73.60842 | 14090 ft | 389 kts | 133° |
| 2026-04-30 19:40 | 40.34460 | -73.57997 | 14844 ft | 394 kts | 133° |
| 2026-04-30 19:40 | 40.32785 | -73.55125 | 15603 ft | 398 kts | 133° |
| 2026-04-30 19:40 | 40.31086 | -73.52216 | 16347 ft | 403 kts | 133° |
| 2026-04-30 19:40 | 40.29367 | -73.49276 | 17112 ft | 408 kts | 133° |
| 2026-04-30 19:41 | 40.27632 | -73.46310 | 17858 ft | 413 kts | 133° |
| 2026-04-30 19:41 | 40.25877 | -73.43314 | 18544 ft | 417 kts | 133° |
| 2026-04-30 19:41 | 40.24070 | -73.40391 | 19139 ft | 416 kts | 140° |
| 2026-04-30 19:41 | 40.21937 | -73.37836 | 19802 ft | 414 kts | 147° |
| 2026-04-30 19:42 | 40.19645 | -73.35561 | 20428 ft | 414 kts | 151° |
| 2026-04-30 19:42 | 40.17256 | -73.33431 | 21034 ft | 415 kts | 155° |
| 2026-04-30 19:42 | 40.14705 | -73.31674 | 21569 ft | 411 kts | 164° |
| 2026-04-30 19:42 | 40.12037 | -73.30610 | 21926 ft | 402 kts | 176° |
| 2026-04-30 19:43 | 40.09274 | -73.30356 | 22322 ft | 395 kts | 189° |
| 2026-04-30 19:43 | 40.06584 | -73.30910 | 22696 ft | 389 kts | 201° |
| 2026-04-30 19:43 | 40.04079 | -73.32184 | 22810 ft | 383 kts | 212° |
| 2026-04-30 19:44 | 39.99848 | -73.36326 | 23761 ft | 380 kts | 225° |
| 2026-04-30 19:44 | 39.97876 | -73.38640 | 24349 ft | 382 kts | 225° |
| 2026-04-30 19:44 | 39.95893 | -73.40973 | 24957 ft | 385 kts | 225° |
| 2026-04-30 19:44 | 39.93915 | -73.43270 | 25534 ft | 387 kts | 225° |
| 2026-04-30 19:45 | 39.91880 | -73.45600 | 26125 ft | 390 kts | 224° |
| 2026-04-30 19:45 | 39.89823 | -73.47930 | 26728 ft | 393 kts | 224° |
| 2026-04-30 19:45 | 39.87755 | -73.50257 | 27326 ft | 395 kts | 224° |
| 2026-04-30 19:45 | 39.85655 | -73.52610 | 27921 ft | 398 kts | 224° |
| 2026-04-30 19:46 | 39.83542 | -73.54967 | 28525 ft | 401 kts | 224° |
| 2026-04-30 19:46 | 39.81413 | -73.57337 | 29109 ft | 404 kts | 224° |
| 2026-04-30 19:46 | 39.79293 | -73.59695 | 29693 ft | 407 kts | 224° |
| 2026-04-30 19:46 | 39.77128 | -73.62103 | 30191 ft | 410 kts | 224° |
| 2026-04-30 19:47 | 39.74945 | -73.64528 | 30703 ft | 411 kts | 224° |
| 2026-04-30 19:47 | 39.73503 | -73.66130 | 31047 ft | 411 kts | 224° |
| 2026-04-30 19:47 | 39.70598 | -73.69353 | 31743 ft | 410 kts | 224° |
| 2026-04-30 19:47 | 39.68459 | -73.71725 | 32253 ft | 409 kts | 224° |
| 2026-04-30 19:48 | 39.66293 | -73.74126 | 32752 ft | 408 kts | 224° |
| 2026-04-30 19:48 | 39.64133 | -73.76517 | 33245 ft | 407 kts | 224° |
| 2026-04-30 19:48 | 39.61977 | -73.78903 | 33721 ft | 407 kts | 224° |
| 2026-04-30 19:48 | 39.59823 | -73.81285 | 34122 ft | 406 kts | 224° |
| 2026-04-30 19:49 | 39.57669 | -73.83665 | 34504 ft | 406 kts | 224° |
| 2026-04-30 19:49 | 39.53396 | -73.88380 | 35212 ft | 406 kts | 224° |
| 2026-04-30 19:49 | 39.51235 | -73.90761 | 35571 ft | 405 kts | 224° |
| 2026-04-30 19:50 | 39.49077 | -73.93137 | 35910 ft | 405 kts | 224° |
| 2026-04-30 19:50 | 39.46954 | -73.95473 | 36230 ft | 405 kts | 224° |
| 2026-04-30 19:50 | 39.44800 | -73.97840 | 36571 ft | 405 kts | 224° |
| 2026-04-30 19:50 | 39.42649 | -74.00203 | 36897 ft | 405 kts | 224° |
| 2026-04-30 19:51 | 39.40493 | -74.02561 | 37197 ft | 406 kts | 223° |
| 2026-04-30 19:51 | 39.38328 | -74.04921 | 37504 ft | 407 kts | 223° |
| 2026-04-30 19:51 | 39.36162 | -74.07279 | 37786 ft | 406 kts | 223° |
| 2026-04-30 19:51 | 39.34001 | -74.09635 | 38109 ft | 405 kts | 223° |
| 2026-04-30 19:52 | 39.31844 | -74.11987 | 38409 ft | 405 kts | 223° |
| 2026-04-30 19:52 | 39.29715 | -74.14309 | 38641 ft | 405 kts | 223° |
| 2026-04-30 19:52 | 39.27554 | -74.16665 | 38847 ft | 405 kts | 223° |
| 2026-04-30 19:52 | 39.25396 | -74.19016 | 39049 ft | 406 kts | 223° |
| 2026-04-30 19:53 | 39.23232 | -74.21373 | 39246 ft | 406 kts | 223° |
| 2026-04-30 19:53 | 39.21091 | -74.23703 | 39424 ft | 407 kts | 223° |
| 2026-04-30 19:53 | 39.18916 | -74.26066 | 39635 ft | 407 kts | 223° |
| 2026-04-30 19:53 | 39.16745 | -74.28425 | 39762 ft | 408 kts | 223° |
| 2026-04-30 19:54 | 39.12397 | -74.33143 | 39828 ft | 414 kts | 223° |
| 2026-04-30 19:54 | 39.07510 | -74.37202 | 39832 ft | 422 kts | 212° |
| 2026-04-30 19:55 | 39.02282 | -74.40598 | 39824 ft | 423 kts | 212° |
| 2026-04-30 19:55 | 38.97940 | -74.43518 | 39821 ft | 422 kts | 213° |
| 2026-04-30 19:56 | 38.92778 | -74.47131 | 39827 ft | 421 kts | 213° |
| 2026-04-30 19:56 | 38.87640 | -74.50779 | 39836 ft | 421 kts | 214° |
| 2026-04-30 19:57 | 38.82553 | -74.54393 | 39840 ft | 421 kts | 214° |
| 2026-04-30 19:57 | 38.77414 | -74.58036 | 39811 ft | 421 kts | 214° |
| 2026-04-30 19:58 | 38.72281 | -74.61668 | 39841 ft | 420 kts | 214° |
| 2026-04-30 19:58 | 38.67233 | -74.65233 | 39838 ft | 420 kts | 214° |
| 2026-04-30 19:59 | 38.62066 | -74.68876 | 39841 ft | 419 kts | 214° |
| 2026-04-30 20:00 | 38.54418 | -74.74257 | 39833 ft | 419 kts | 214° |
| 2026-04-30 20:00 | 38.49313 | -74.77842 | 39843 ft | 419 kts | 214° |
| 2026-04-30 20:01 | 38.41653 | -74.83210 | 39842 ft | 419 kts | 214° |
| 2026-04-30 20:01 | 38.36515 | -74.86787 | 39841 ft | 420 kts | 214° |
| 2026-04-30 20:02 | 38.28838 | -74.92123 | 39835 ft | 420 kts | 214° |
| 2026-04-30 20:03 | 38.21130 | -74.97486 | 39843 ft | 420 kts | 214° |
| 2026-04-30 20:03 | 38.16030 | -75.01030 | 39856 ft | 420 kts | 214° |
| 2026-04-30 20:04 | 38.10876 | -75.04605 | 39850 ft | 420 kts | 214° |
| 2026-04-30 20:05 | 38.03182 | -75.09932 | 39848 ft | 421 kts | 214° |
| 2026-04-30 20:05 | 37.95443 | -75.15276 | 39848 ft | 422 kts | 214° |
| 2026-04-30 20:06 | 37.90317 | -75.18808 | 39844 ft | 422 kts | 214° |
| 2026-04-30 20:06 | 37.85155 | -75.22360 | 39843 ft | 422 kts | 214° |
| 2026-04-30 20:07 | 37.79981 | -75.25914 | 39845 ft | 422 kts | 214° |
| 2026-04-30 20:08 | 37.72255 | -75.31210 | 39822 ft | 422 kts | 214° |
| 2026-04-30 20:08 | 37.67087 | -75.34745 | 39842 ft | 422 kts | 214° |
| 2026-04-30 20:09 | 37.61933 | -75.38247 | 39847 ft | 422 kts | 214° |
| 2026-04-30 20:09 | 37.54182 | -75.43516 | 39864 ft | 423 kts | 214° |
| 2026-04-30 20:10 | 37.46406 | -75.48803 | 39852 ft | 423 kts | 214° |
| 2026-04-30 20:11 | 37.38652 | -75.54064 | 39857 ft | 423 kts | 214° |
| 2026-04-30 20:11 | 37.33453 | -75.57584 | 39854 ft | 423 kts | 214° |
| 2026-04-30 20:12 | 37.25656 | -75.62853 | 39847 ft | 423 kts | 215° |
| 2026-04-30 20:13 | 37.20497 | -75.66333 | 39858 ft | 423 kts | 215° |
| 2026-04-30 20:13 | 37.15312 | -75.69824 | 39859 ft | 423 kts | 215° |
| 2026-04-30 20:14 | 37.10159 | -75.73289 | 39870 ft | 423 kts | 215° |
| 2026-04-30 20:14 | 37.04957 | -75.76781 | 39863 ft | 422 kts | 215° |
| 2026-04-30 20:15 | 36.99767 | -75.80260 | 39864 ft | 423 kts | 215° |
| 2026-04-30 20:15 | 36.94616 | -75.83707 | 39868 ft | 423 kts | 215° |
| 2026-04-30 20:16 | 36.89400 | -75.87176 | 39877 ft | 423 kts | 215° |
| 2026-04-30 20:16 | 36.84224 | -75.90613 | 39866 ft | 423 kts | 216° |
| 2026-04-30 20:17 | 36.79014 | -75.94079 | 39868 ft | 422 kts | 216° |
| 2026-04-30 20:17 | 36.73846 | -75.97516 | 39869 ft | 422 kts | 216° |
| 2026-04-30 20:18 | 36.68647 | -76.00969 | 39877 ft | 422 kts | 216° |
| 2026-04-30 20:18 | 36.63456 | -76.04410 | 39859 ft | 422 kts | 216° |
| 2026-04-30 20:19 | 36.58298 | -76.07824 | 39877 ft | 422 kts | 216° |
| 2026-04-30 20:19 | 36.53098 | -76.11261 | 39885 ft | 422 kts | 216° |
| 2026-04-30 20:20 | 36.47941 | -76.14664 | 39889 ft | 422 kts | 216° |
| 2026-04-30 20:20 | 36.42738 | -76.18094 | 39868 ft | 423 kts | 216° |
| 2026-04-30 20:21 | 36.37539 | -76.21514 | 39880 ft | 422 kts | 216° |
| 2026-04-30 20:21 | 36.32365 | -76.24912 | 39879 ft | 422 kts | 216° |
| 2026-04-30 20:22 | 36.27165 | -76.28323 | 39875 ft | 422 kts | 216° |
| 2026-04-30 20:22 | 36.21966 | -76.31728 | 39879 ft | 422 kts | 216° |
| 2026-04-30 20:23 | 36.16804 | -76.35092 | 39869 ft | 422 kts | 217° |
| 2026-04-30 20:23 | 36.11600 | -76.38474 | 39891 ft | 422 kts | 217° |
| 2026-04-30 20:24 | 36.06397 | -76.41861 | 39894 ft | 422 kts | 217° |
| 2026-04-30 20:24 | 36.01182 | -76.45254 | 39896 ft | 422 kts | 217° |
| 2026-04-30 20:25 | 35.93406 | -76.50307 | 39889 ft | 422 kts | 217° |
| 2026-04-30 20:26 | 35.85593 | -76.55373 | 39885 ft | 423 kts | 217° |
| 2026-04-30 20:26 | 35.77762 | -76.60437 | 39884 ft | 423 kts | 217° |
| 2026-04-30 20:27 | 35.67335 | -76.67165 | 39882 ft | 423 kts | 217° |
| 2026-04-30 20:28 | 35.56930 | -76.73857 | 39884 ft | 423 kts | 217° |
| 2026-04-30 20:30 | 35.43870 | -76.82222 | 39885 ft | 424 kts | 218° |
| 2026-04-30 20:31 | 35.28171 | -76.92221 | 39885 ft | 425 kts | 218° |
| 2026-04-30 20:32 | 35.15060 | -77.00558 | 39899 ft | 425 kts | 218° |
| 2026-04-30 20:33 | 35.07215 | -77.05531 | 39895 ft | 425 kts | 218° |
| 2026-04-30 20:34 | 34.99342 | -77.10512 | 39891 ft | 425 kts | 218° |
| 2026-04-30 20:35 | 34.91480 | -77.15475 | 39891 ft | 425 kts | 218° |
| 2026-04-30 20:35 | 34.83587 | -77.20446 | 39885 ft | 425 kts | 218° |
| 2026-04-30 20:36 | 34.78353 | -77.23737 | 39896 ft | 426 kts | 219° |
| 2026-04-30 20:37 | 34.70427 | -77.28708 | 39897 ft | 427 kts | 219° |
| 2026-04-30 20:37 | 34.65151 | -77.31996 | 39896 ft | 427 kts | 219° |
| 2026-04-30 20:38 | 34.59864 | -77.35294 | 39896 ft | 427 kts | 219° |
| 2026-04-30 20:38 | 34.54601 | -77.38582 | 39887 ft | 428 kts | 219° |
| 2026-04-30 20:39 | 34.48879 | -77.41136 | 39892 ft | 452 kts | 204° |
| 2026-04-30 20:39 | 34.45749 | -77.41831 | 39889 ft | 458 kts | 201° |
| 2026-04-30 20:40 | 34.36256 | -77.43460 | 39881 ft | 460 kts | 200° |
| 2026-04-30 20:40 | 34.29949 | -77.44636 | 39872 ft | 461 kts | 201° |
| 2026-04-30 20:41 | 34.20462 | -77.46499 | 39876 ft | 461 kts | 201° |
| 2026-04-30 20:41 | 34.14124 | -77.47749 | 39872 ft | 461 kts | 201° |
| 2026-04-30 20:42 | 34.07799 | -77.48993 | 39840 ft | 462 kts | 201° |
| 2026-04-30 20:43 | 33.99301 | -77.50662 | 39873 ft | 464 kts | 201° |
| 2026-04-30 20:43 | 33.92909 | -77.51910 | 39867 ft | 464 kts | 201° |
| 2026-04-30 20:44 | 33.83373 | -77.53772 | 39836 ft | 464 kts | 200° |
| 2026-04-30 20:45 | 33.70620 | -77.56257 | 39872 ft | 465 kts | 200° |
| 2026-04-30 20:45 | 33.64224 | -77.57496 | 39867 ft | 465 kts | 200° |
| 2026-04-30 20:46 | 33.51674 | -77.60573 | 39872 ft | 455 kts | 207° |
| 2026-04-30 20:47 | 33.42628 | -77.63847 | 39864 ft | 454 kts | 208° |
| 2026-04-30 20:48 | 33.33527 | -77.67086 | 39829 ft | 454 kts | 207° |
| 2026-04-30 20:48 | 33.27470 | -77.69211 | 39858 ft | 456 kts | 207° |
| 2026-04-30 20:49 | 33.21375 | -77.71342 | 39864 ft | 456 kts | 207° |
| 2026-04-30 20:50 | 33.12259 | -77.74524 | 39855 ft | 456 kts | 207° |
| 2026-04-30 20:50 | 33.06160 | -77.76651 | 39833 ft | 456 kts | 206° |
| 2026-04-30 20:51 | 33.00049 | -77.78781 | 39854 ft | 457 kts | 206° |
| 2026-04-30 20:51 | 32.90904 | -77.81958 | 39856 ft | 457 kts | 206° |
| 2026-04-30 20:52 | 32.84782 | -77.84081 | 39853 ft | 457 kts | 206° |
| 2026-04-30 20:53 | 32.75645 | -77.87244 | 39850 ft | 457 kts | 206° |
| 2026-04-30 20:53 | 32.69522 | -77.89351 | 39850 ft | 457 kts | 206° |
| 2026-04-30 20:54 | 32.60308 | -77.92406 | 39850 ft | 459 kts | 205° |
| 2026-04-30 20:55 | 32.51090 | -77.95384 | 39851 ft | 459 kts | 205° |
| 2026-04-30 20:55 | 32.44936 | -77.97372 | 39854 ft | 456 kts | 205° |
| 2026-04-30 20:56 | 32.35783 | -78.00333 | 39854 ft | 455 kts | 205° |
| 2026-04-30 20:57 | 32.26632 | -78.03284 | 39847 ft | 450 kts | 205° |
| 2026-04-30 20:57 | 32.20620 | -78.05220 | 39850 ft | 449 kts | 205° |
| 2026-04-30 20:58 | 32.11555 | -78.08139 | 39865 ft | 449 kts | 205° |
| 2026-04-30 20:58 | 32.05558 | -78.10065 | 39795 ft | 449 kts | 205° |
| 2026-04-30 20:59 | 31.96557 | -78.12946 | 39855 ft | 445 kts | 205° |
| 2026-04-30 21:00 | 31.84646 | -78.16753 | 39865 ft | 444 kts | 205° |
| 2026-04-30 21:01 | 31.75707 | -78.19596 | 39856 ft | 445 kts | 205° |
| 2026-04-30 21:02 | 31.66763 | -78.22442 | 39864 ft | 445 kts | 205° |
| 2026-04-30 21:02 | 31.60767 | -78.24348 | 39865 ft | 445 kts | 205° |
| 2026-04-30 21:03 | 31.54813 | -78.26237 | 39867 ft | 445 kts | 205° |
| 2026-04-30 21:03 | 31.48813 | -78.28141 | 39865 ft | 448 kts | 205° |
| 2026-04-30 21:04 | 31.42800 | -78.30109 | 39871 ft | 448 kts | 205° |
| 2026-04-30 21:04 | 31.33839 | -78.33116 | 39871 ft | 448 kts | 206° |
| 2026-04-30 21:05 | 31.27844 | -78.35125 | 39871 ft | 448 kts | 206° |
| 2026-04-30 21:05 | 31.21828 | -78.37138 | 39866 ft | 450 kts | 205° |
| 2026-04-30 21:06 | 31.15801 | -78.39149 | 39874 ft | 450 kts | 205° |
| 2026-04-30 21:06 | 31.09810 | -78.41144 | 39883 ft | 450 kts | 205° |
| 2026-04-30 21:07 | 31.03781 | -78.43150 | 39876 ft | 450 kts | 205° |
| 2026-04-30 21:07 | 30.97731 | -78.45161 | 39869 ft | 452 kts | 205° |
| 2026-04-30 21:08 | 30.91693 | -78.47167 | 39877 ft | 453 kts | 205° |
| 2026-04-30 21:08 | 30.85653 | -78.49168 | 39881 ft | 453 kts | 205° |
| 2026-04-30 21:09 | 30.79578 | -78.51178 | 39884 ft | 453 kts | 205° |
| 2026-04-30 21:09 | 30.73501 | -78.53187 | 39887 ft | 453 kts | 205° |
| 2026-04-30 21:10 | 30.67452 | -78.55186 | 39884 ft | 456 kts | 205° |
| 2026-04-30 21:10 | 30.61341 | -78.57193 | 39885 ft | 457 kts | 205° |
| 2026-04-30 21:11 | 30.55201 | -78.59209 | 39890 ft | 457 kts | 205° |
| 2026-04-30 21:11 | 30.49109 | -78.61210 | 39888 ft | 457 kts | 205° |
| 2026-04-30 21:12 | 30.42982 | -78.63224 | 39886 ft | 459 kts | 205° |
| 2026-04-30 21:12 | 30.36826 | -78.65245 | 39885 ft | 460 kts | 205° |
| 2026-04-30 21:13 | 30.30655 | -78.67265 | 39887 ft | 460 kts | 205° |
| 2026-04-30 21:13 | 30.24527 | -78.69268 | 39886 ft | 460 kts | 205° |
| 2026-04-30 21:14 | 30.18354 | -78.71285 | 39902 ft | 461 kts | 205° |
| 2026-04-30 21:14 | 30.12167 | -78.73309 | 39897 ft | 461 kts | 205° |
| 2026-04-30 21:15 | 30.06026 | -78.75319 | 39907 ft | 461 kts | 205° |
| 2026-04-30 21:15 | 29.99868 | -78.77334 | 39905 ft | 461 kts | 205° |
| 2026-04-30 21:16 | 29.93680 | -78.79355 | 39899 ft | 461 kts | 205° |
| 2026-04-30 21:16 | 29.87523 | -78.81366 | 39897 ft | 464 kts | 204° |
| 2026-04-30 21:17 | 29.81282 | -78.83397 | 39900 ft | 465 kts | 203° |
| 2026-04-30 21:17 | 29.74886 | -78.84795 | 39903 ft | 475 kts | 195° |
| 2026-04-30 21:18 | 29.68294 | -78.85640 | 39905 ft | 477 kts | 194° |
| 2026-04-30 21:18 | 29.61686 | -78.86456 | 39897 ft | 477 kts | 194° |
| 2026-04-30 21:19 | 29.55119 | -78.87324 | 39905 ft | 477 kts | 194° |
| 2026-04-30 21:19 | 29.48517 | -78.88220 | 39905 ft | 477 kts | 194° |
| 2026-04-30 21:20 | 29.41908 | -78.89120 | 39908 ft | 477 kts | 194° |
| 2026-04-30 21:20 | 29.35342 | -78.90012 | 39886 ft | 477 kts | 194° |
| 2026-04-30 21:21 | 29.28730 | -78.90909 | 39907 ft | 478 kts | 194° |
| 2026-04-30 21:22 | 29.18802 | -78.92251 | 39911 ft | 478 kts | 194° |
| 2026-04-30 21:23 | 29.05594 | -78.94033 | 39900 ft | 479 kts | 193° |
| 2026-04-30 21:23 | 28.95687 | -78.95366 | 39906 ft | 479 kts | 193° |
| 2026-04-30 21:24 | 28.89059 | -78.96253 | 39923 ft | 479 kts | 193° |
| 2026-04-30 21:24 | 28.82434 | -78.97141 | 39907 ft | 479 kts | 193° |
| 2026-04-30 21:25 | 28.72503 | -78.98472 | 39916 ft | 480 kts | 193° |
| 2026-04-30 21:26 | 28.62563 | -78.99801 | 39916 ft | 480 kts | 193° |
| 2026-04-30 21:27 | 28.52581 | -79.01133 | 39922 ft | 481 kts | 193° |
| 2026-04-30 21:27 | 28.45925 | -79.02021 | 39922 ft | 482 kts | 193° |
| 2026-04-30 21:28 | 28.35940 | -79.03350 | 39922 ft | 482 kts | 193° |
| 2026-04-30 21:29 | 28.26355 | -79.06030 | 39917 ft | 471 kts | 205° |
| 2026-04-30 21:30 | 28.10852 | -79.12062 | 39927 ft | 473 kts | 204° |
| 2026-04-30 21:31 | 27.96253 | -79.17516 | 39925 ft | 473 kts | 204° |
| 2026-04-30 21:32 | 27.86866 | -79.21016 | 39924 ft | 475 kts | 204° |
| 2026-04-30 21:32 | 27.80585 | -79.23355 | 39925 ft | 475 kts | 204° |
| 2026-04-30 21:33 | 27.71186 | -79.26849 | 39720 ft | 476 kts | 204° |
| 2026-04-30 21:33 | 27.68027 | -79.28023 | 39158 ft | 477 kts | 204° |
| 2026-04-30 21:34 | 27.64909 | -79.29180 | 38568 ft | 478 kts | 204° |
| 2026-04-30 21:34 | 27.58540 | -79.31543 | 37207 ft | 480 kts | 204° |
| 2026-04-30 21:34 | 27.55366 | -79.32718 | 36567 ft | 481 kts | 204° |
| 2026-04-30 21:35 | 27.52223 | -79.33878 | 35949 ft | 481 kts | 203° |
| 2026-04-30 21:35 | 27.49041 | -79.35050 | 35342 ft | 480 kts | 203° |
| 2026-04-30 21:35 | 27.45857 | -79.36223 | 34747 ft | 480 kts | 203° |
| 2026-04-30 21:35 | 27.42677 | -79.37396 | 34184 ft | 480 kts | 203° |
| 2026-04-30 21:36 | 27.39497 | -79.38568 | 33581 ft | 480 kts | 203° |
| 2026-04-30 21:36 | 27.36349 | -79.39730 | 32973 ft | 480 kts | 203° |
| 2026-04-30 21:37 | 27.26780 | -79.43250 | 31231 ft | 481 kts | 202° |
| 2026-04-30 21:37 | 27.23598 | -79.44413 | 30643 ft | 478 kts | 202° |
| 2026-04-30 21:37 | 27.20475 | -79.45553 | 30066 ft | 474 kts | 202° |
| 2026-04-30 21:37 | 27.17358 | -79.46691 | 29426 ft | 468 kts | 202° |
| 2026-04-30 21:38 | 27.14267 | -79.47819 | 28818 ft | 465 kts | 202° |
| 2026-04-30 21:38 | 27.11197 | -79.48940 | 28237 ft | 461 kts | 202° |
| 2026-04-30 21:38 | 27.08145 | -79.50054 | 27662 ft | 458 kts | 202° |
| 2026-04-30 21:38 | 27.05166 | -79.51142 | 27087 ft | 455 kts | 202° |
| 2026-04-30 21:39 | 27.02160 | -79.52238 | 26508 ft | 452 kts | 202° |
| 2026-04-30 21:39 | 26.99175 | -79.53325 | 25921 ft | 448 kts | 202° |
| 2026-04-30 21:39 | 26.96204 | -79.54407 | 25337 ft | 446 kts | 202° |
| 2026-04-30 21:39 | 26.93295 | -79.55466 | 24759 ft | 443 kts | 202° |
| 2026-04-30 21:40 | 26.90365 | -79.56532 | 24182 ft | 440 kts | 202° |
| 2026-04-30 21:40 | 26.87459 | -79.57585 | 23592 ft | 437 kts | 201° |
| 2026-04-30 21:40 | 26.84568 | -79.58630 | 22921 ft | 434 kts | 201° |
| 2026-04-30 21:40 | 26.81734 | -79.59651 | 22298 ft | 430 kts | 202° |
| 2026-04-30 21:41 | 26.78897 | -79.60672 | 21673 ft | 426 kts | 202° |
| 2026-04-30 21:41 | 26.76084 | -79.61686 | 21079 ft | 422 kts | 201° |
| 2026-04-30 21:41 | 26.73295 | -79.62690 | 20499 ft | 418 kts | 202° |
| 2026-04-30 21:41 | 26.70541 | -79.63682 | 19961 ft | 414 kts | 202° |
| 2026-04-30 21:42 | 26.67803 | -79.64667 | 19590 ft | 411 kts | 202° |
| 2026-04-30 21:42 | 26.65163 | -79.65614 | 19342 ft | 393 kts | 202° |
| 2026-04-30 21:42 | 26.62585 | -79.66534 | 18944 ft | 384 kts | 202° |
| 2026-04-30 21:42 | 26.60042 | -79.67435 | 18365 ft | 381 kts | 202° |
| 2026-04-30 21:43 | 26.57524 | -79.68324 | 17729 ft | 376 kts | 202° |
| 2026-04-30 21:43 | 26.55062 | -79.69192 | 17125 ft | 372 kts | 202° |
| 2026-04-30 21:43 | 26.52596 | -79.70060 | 16578 ft | 368 kts | 202° |
| 2026-04-30 21:43 | 26.50167 | -79.70915 | 16178 ft | 364 kts | 202° |
| 2026-04-30 21:44 | 26.47757 | -79.71771 | 15949 ft | 362 kts | 203° |
| 2026-04-30 21:44 | 26.45541 | -79.72950 | 15907 ft | 354 kts | 219° |
| 2026-04-30 21:44 | 26.43685 | -79.74725 | 15908 ft | 350 kts | 229° |
| 2026-04-30 21:44 | 26.42023 | -79.76717 | 15906 ft | 348 kts | 232° |
| 2026-04-30 21:45 | 26.40421 | -79.78756 | 15905 ft | 348 kts | 232° |
| 2026-04-30 21:45 | 26.38855 | -79.80776 | 15898 ft | 349 kts | 234° |
| 2026-04-30 21:45 | 26.37383 | -79.82916 | 15897 ft | 344 kts | 237° |
| 2026-04-30 21:45 | 26.36052 | -79.85022 | 15888 ft | 321 kts | 239° |
| 2026-04-30 21:46 | 26.34807 | -79.87050 | 15884 ft | 313 kts | 239° |
| 2026-04-30 21:46 | 26.33596 | -79.89032 | 15882 ft | 312 kts | 239° |
| 2026-04-30 21:46 | 26.32372 | -79.91028 | 15881 ft | 311 kts | 239° |
| 2026-04-30 21:46 | 26.31142 | -79.93022 | 15881 ft | 311 kts | 239° |
| 2026-04-30 21:47 | 26.29910 | -79.95012 | 15880 ft | 311 kts | 239° |
| 2026-04-30 21:47 | 26.28676 | -79.96999 | 15879 ft | 311 kts | 239° |
| 2026-04-30 21:47 | 26.27455 | -79.98963 | 15875 ft | 311 kts | 239° |
| 2026-04-30 21:47 | 26.26102 | -80.00871 | 15864 ft | 315 kts | 229° |
| 2026-04-30 21:48 | 26.24308 | -80.02297 | 15797 ft | 322 kts | 208° |
| 2026-04-30 21:48 | 26.22164 | -80.03075 | 15741 ft | 327 kts | 197° |
| 2026-04-30 21:48 | 26.19926 | -80.03595 | 15668 ft | 327 kts | 194° |
| 2026-04-30 21:48 | 26.17719 | -80.04046 | 15608 ft | 327 kts | 194° |
| 2026-04-30 21:49 | 26.15480 | -80.04506 | 15557 ft | 326 kts | 194° |
| 2026-04-30 21:49 | 26.13247 | -80.04980 | 15488 ft | 326 kts | 194° |
| 2026-04-30 21:49 | 26.11019 | -80.05467 | 15172 ft | 327 kts | 195° |
| 2026-04-30 21:49 | 26.08795 | -80.05962 | 14711 ft | 323 kts | 195° |
| 2026-04-30 21:50 | 26.06601 | -80.06476 | 14220 ft | 320 kts | 196° |
| 2026-04-30 21:50 | 26.04459 | -80.07017 | 13730 ft | 317 kts | 196° |
| 2026-04-30 21:50 | 26.02314 | -80.07573 | 13187 ft | 314 kts | 197° |
| 2026-04-30 21:50 | 26.00194 | -80.08126 | 12676 ft | 312 kts | 197° |
| 2026-04-30 21:51 | 25.98087 | -80.08678 | 12174 ft | 309 kts | 197° |
| 2026-04-30 21:51 | 25.96021 | -80.09218 | 11691 ft | 307 kts | 197° |
| 2026-04-30 21:51 | 25.93952 | -80.09770 | 11203 ft | 304 kts | 199° |
| 2026-04-30 21:51 | 25.92050 | -80.10710 | 10726 ft | 295 kts | 219° |
| 2026-04-30 21:52 | 25.90534 | -80.12215 | 10317 ft | 288 kts | 229° |
| 2026-04-30 21:52 | 25.89196 | -80.13857 | 9871 ft | 284 kts | 234° |
| 2026-04-30 21:52 | 25.88189 | -80.15709 | 9367 ft | 277 kts | 253° |
| 2026-04-30 21:52 | 25.87839 | -80.17781 | 9003 ft | 273 kts | 266° |
| 2026-04-30 21:53 | 25.87745 | -80.19855 | 8630 ft | 271 kts | 269° |
| 2026-04-30 21:53 | 25.87690 | -80.21951 | 8113 ft | 272 kts | 269° |
| 2026-04-30 21:53 | 25.87638 | -80.24059 | 7640 ft | 273 kts | 269° |
| 2026-04-30 21:53 | 25.87582 | -80.26173 | 7228 ft | 270 kts | 269° |
| 2026-04-30 21:54 | 25.87524 | -80.28216 | 6877 ft | 266 kts | 269° |
| 2026-04-30 21:54 | 25.87464 | -80.30252 | 6517 ft | 261 kts | 269° |
| 2026-04-30 21:54 | 25.87402 | -80.32256 | 6176 ft | 259 kts | 268° |
| 2026-04-30 21:54 | 25.87340 | -80.34256 | 5897 ft | 260 kts | 268° |
| 2026-04-30 21:55 | 25.87276 | -80.36259 | 5529 ft | 257 kts | 269° |
| 2026-04-30 21:55 | 25.87208 | -80.38238 | 5190 ft | 255 kts | 268° |
| 2026-04-30 21:55 | 25.87099 | -80.40175 | 4887 ft | 253 kts | 266° |
| 2026-04-30 21:55 | 25.86969 | -80.42136 | 4513 ft | 253 kts | 266° |
| 2026-04-30 21:56 | 25.86836 | -80.44082 | 4166 ft | 250 kts | 266° |
| 2026-04-30 21:56 | 25.86705 | -80.45985 | 3801 ft | 250 kts | 265° |
| 2026-04-30 21:56 | 25.86573 | -80.47907 | 3435 ft | 247 kts | 265° |
| 2026-04-30 21:56 | 25.86316 | -80.49772 | 3103 ft | 244 kts | 248° |
| 2026-04-30 21:57 | 25.85346 | -80.51277 | 3020 ft | 238 kts | 219° |
| 2026-04-30 21:57 | 25.83901 | -80.51960 | 3000 ft | 222 kts | 189° |
| 2026-04-30 21:57 | 25.82415 | -80.51667 | 3011 ft | 223 kts | 157° |
| 2026-04-30 21:57 | 25.81284 | -80.50580 | 3010 ft | 212 kts | 132° |
| 2026-04-30 21:58 | 25.80458 | -80.49224 | 3014 ft | 210 kts | 125° |
| 2026-04-30 21:58 | 25.79739 | -80.47842 | 2988 ft | 212 kts | 115° |
| 2026-04-30 21:58 | 25.79485 | -80.46239 | 2739 ft | 210 kts | 96° |
| 2026-04-30 21:58 | 25.79478 | -80.44613 | 2476 ft | 209 kts | 91° |
| 2026-04-30 21:59 | 25.79531 | -80.43025 | 2198 ft | 206 kts | 89° |
| 2026-04-30 21:59 | 25.79608 | -80.41470 | 1942 ft | 197 kts | 92° |
| 2026-04-30 21:59 | 25.79675 | -80.39999 | 1709 ft | 185 kts | 91° |
| 2026-04-30 22:00 | 25.79787 | -80.37394 | 1214 ft | 150 kts | 91° |
| 2026-04-30 22:00 | 25.79875 | -80.35101 | 896 ft | 147 kts | 94° |
| 2026-04-30 22:00 | 25.79918 | -80.33967 | 683 ft | 147 kts | 90° |
| 2026-04-30 22:01 | 25.79963 | -80.32821 | 494 ft | 151 kts | 91° |
| 2026-04-30 22:01 | 25.80006 | -80.31650 | 389 ft | 148 kts | 91° |
| 2026-04-30 22:01 | 25.80059 | -80.30551 | 167 ft | 144 kts | 90° |
| 2026-04-30 22:01 | 25.80100 | -80.29455 | 28 ft | 134 kts | 87° |
| 2026-04-30 22:02 | 25.80136 | -80.28574 | 30 ft | 93 kts | 88° |
| 2026-04-30 22:02 | 25.80160 | -80.27985 | 26 ft | 59 kts | 88° |
| 2026-04-30 22:02 | 25.80173 | -80.27637 | 28 ft | 26 kts | 88° |
| 2026-04-30 22:02 | 25.80160 | -80.27553 | 29 ft | 3 kts | 131° |
| 2026-04-30 22:03 | 25.80137 | -80.27541 | 30 ft | 6 kts | 158° |
| 2026-04-30 22:03 | 25.80089 | -80.27545 | 29 ft | 7 kts | 208° |
| 2026-04-30 22:03 | 25.80067 | -80.27584 | 28 ft | 8 kts | 253° |
| 2026-04-30 22:03 | 25.80063 | -80.27645 | 28 ft | 8 kts | 267° |
| 2026-04-30 22:04 | 25.80061 | -80.27702 | 28 ft | 7 kts | 267° |
| 2026-04-30 22:04 | 25.80059 | -80.27772 | 27 ft | 12 kts | 268° |
| 2026-04-30 22:04 | 25.80048 | -80.27993 | 27 ft | 15 kts | 267° |
| 2026-04-30 22:05 | 25.80044 | -80.28104 | 25 ft | 11 kts | 267° |
| 2026-04-30 22:05 | 25.80033 | -80.28136 | 30 ft | 3 kts | 226° |
| 2026-04-30 22:05 | 25.79996 | -80.28156 | 30 ft | 8 kts | 202° |
| 2026-04-30 22:05 | 25.79942 | -80.28166 | 29 ft | 8 kts | 178° |
| 2026-04-30 22:06 | 25.79888 | -80.28165 | 29 ft | 8 kts | 179° |
| 2026-04-30 22:06 | 25.79843 | -80.28164 | 28 ft | 2 kts | 180° |
| 2026-04-30 22:06 | 25.79837 | -80.28164 | 27 ft | 0 kts | 180° |